New Elliott, Indiana
Current Conditions -  °F | °C
As of 2:15 AM on Tuesday 27 Jan 2015 (Local Time) from KIGQ Reporting Station
Light Snow Light Snow  
Wind Chill: 19°   Ceiling: 800
Heat Index: 24°   Visibility: 7mi
Dew Point: 23°   Wind: 5mph
Humidity: 94%   Direction: 130°SE
Pressure: 29.95"   Gusts: NA
Location:  41.5177°N, 87.4208°W
Report Text: KIGQ 270815Z AUTO 13004KT 7SM -SN OVC008 M04/M05 A2995 RMK AO2 T10421051
Loading
Personal Weather Stations






























Interactive Weather Map New forecast layout! Learn more

10-Day Weather Forecast

Advertisements
Track Severe Weather on mobile